Terminal Aerodrome Forecast
Issued by NWS Tulsa, OK

Home | Current Version | Previous Version | Text Only | Print | Product List | Glossary On
Versions: 1 2 3 4 5 6 7 8 9 10 11 12
975
FTUS44 KTSA 270520
TAFTUL
TAF
KTUL 270520Z 2706/2806 07005KT P6SM FEW060 BKN250
     FM271000 15004KT 4SM BR OVC015
     FM271700 17014G20KT P6SM OVC015
     FM280000 17013G20KT P6SM VCTS OVC025CB
      TEMPO 2801/2805 VRB40KT 2SM TSRA BR OVC007CB=

USA.gov is the U.S. government's official web portal to all federal, state and local government web resources and services.